Time;durP1;ratioP1;P1;durP2;ratioP2;P2;SDS_P1;SDS_P2;PMS_P1;PMS_P2;Temp;Humidity;BMP_temperature;BMP_pressure;BME280_temperature;BME280_humidity;BME280_pressure;Samples;Min_cycle;Max_cycle;Signal;HPM_P1;HPM_P2
2023/05/07 00:08:29;;;;;;;1999.90;999.90;;;14.10;99.90;;;;;;6667151;89;20187;-80
2023/05/07 00:18:30;;;;;;;1999.90;999.90;;;14.10;99.90;;;;;;6652917;89;20255;-77
2023/05/07 00:28:31;;;;;;;1999.90;999.90;;;14.20;99.90;;;;;;6659813;89;20340;-78
2023/05/07 00:38:31;;;;;;;1999.90;999.90;;;14.20;99.90;;;;;;6651201;89;21008;-78
2023/05/07 00:48:32;;;;;;;1999.90;999.90;;;14.20;99.90;;;;;;6649734;89;20752;-77
2023/05/07 00:58:33;;;;;;;1999.90;999.90;;;14.20;99.90;;;;;;6651645;89;20253;-77
2023/05/07 01:08:34;;;;;;;1999.90;999.90;;;14.10;99.90;;;;;;6671807;89;20268;-77
2023/05/07 01:18:35;;;;;;;1999.90;999.90;;;14.10;99.90;;;;;;6652809;89;20204;-77
2023/05/07 01:28:36;;;;;;;1999.90;999.90;;;14.10;99.90;;;;;;6657177;89;20188;-77
2023/05/07 01:38:37;;;;;;;1999.90;999.90;;;14.10;99.90;;;;;;6658656;89;20215;-76
2023/05/07 01:48:38;;;;;;;1999.90;999.90;;;14.10;99.90;;;;;;6657390;88;20749;-77
2023/05/07 01:58:38;;;;;;;1999.90;999.90;;;14.00;99.90;;;;;;6643794;89;20230;-77
2023/05/07 02:08:39;;;;;;;1999.90;999.90;;;14.10;99.90;;;;;;6659714;89;20231;-77
2023/05/07 02:18:40;;;;;;;1999.90;999.90;;;14.10;99.90;;;;;;6666811;89;20604;-77
2023/05/07 02:28:40;;;;;;;1999.90;999.90;;;13.90;99.90;;;;;;6660595;89;20209;-77
2023/05/07 02:38:41;;;;;;;1999.90;999.90;;;13.80;99.90;;;;;;6651031;89;20204;-77
2023/05/07 02:48:41;;;;;;;1999.90;999.90;;;13.70;99.90;;;;;;6663233;89;20211;-77
2023/05/07 02:58:42;;;;;;;1999.90;999.90;;;13.60;99.90;;;;;;6652544;89;20270;-78
2023/05/07 03:08:43;;;;;;;1999.90;999.90;;;13.50;99.90;;;;;;6649154;89;20226;-78
2023/05/07 03:18:44;;;;;;;1999.90;999.90;;;13.60;99.90;;;;;;6656759;89;20184;-77
2023/05/07 03:28:44;;;;;;;1999.90;999.90;;;13.60;99.90;;;;;;6654228;89;20188;-77
2023/05/07 03:38:45;;;;;;;1999.90;999.90;;;13.70;99.90;;;;;;6660463;89;20203;-77
2023/05/07 03:48:45;;;;;;;1999.90;999.90;;;13.70;99.90;;;;;;6656850;89;20205;-77
2023/05/07 03:58:47;;;;;;;1999.90;999.90;;;13.70;99.90;;;;;;6674329;77;20246;-75
2023/05/07 04:08:47;;;;;;;1999.90;999.90;;;13.70;99.90;;;;;;6667280;88;20204;-75
2023/05/07 04:18:48;;;;;;;1999.90;999.90;;;13.70;99.90;;;;;;6672723;89;20654;-75
2023/05/07 04:28:48;;;;;;;1999.90;999.90;;;13.60;99.90;;;;;;6674623;88;20681;-76
2023/05/07 04:38:49;;;;;;;1999.90;999.90;;;13.60;99.90;;;;;;6684785;88;20228;-75
2023/05/07 04:48:49;;;;;;;1999.90;999.90;;;13.70;99.90;;;;;;6666977;88;20191;-75
2023/05/07 04:58:50;;;;;;;1999.90;999.90;;;13.80;99.90;;;;;;6677246;88;20212;-75
2023/05/07 05:08:51;;;;;;;1999.90;999.90;;;13.80;99.90;;;;;;6672495;88;20274;-75
2023/05/07 05:18:53;;;;;;;1999.90;999.90;;;13.80;99.90;;;;;;6677855;88;20204;-75
2023/05/07 05:28:54;;;;;;;1999.90;999.90;;;13.90;99.90;;;;;;6672070;88;20795;-74
2023/05/07 05:38:55;;;;;;;1999.90;999.90;;;14.20;99.90;;;;;;6672235;88;20195;-74
2023/05/07 05:48:56;;;;;;;1999.90;999.90;;;14.30;99.90;;;;;;6669490;88;20233;-74
2023/05/07 05:58:57;;;;;;;1999.90;999.90;;;14.50;99.90;;;;;;6666941;88;20279;-74
2023/05/07 06:08:58;;;;;;;1999.90;999.90;;;14.60;99.90;;;;;;6670529;88;20227;-75
2023/05/07 06:18:58;;;;;;;1999.90;999.90;;;15.00;99.90;;;;;;6671160;88;20207;-74
2023/05/07 06:28:59;;;;;;;1999.90;999.90;;;15.30;99.90;;;;;;6671090;88;20827;-74
2023/05/07 06:39:00;;;;;;;1999.90;999.90;;;15.60;99.90;;;;;;6669786;88;20214;-74
2023/05/07 06:49:00;;;;;;;1999.90;999.90;;;15.90;99.90;;;;;;6673985;88;20194;-76
2023/05/07 06:59:02;;;;;;;1999.90;999.90;;;16.10;99.90;;;;;;6669937;88;20220;-76
2023/05/07 07:09:02;;;;;;;1999.90;999.90;;;16.30;99.90;;;;;;6665874;88;20235;-77
2023/05/07 07:19:03;;;;;;;1999.90;999.90;;;16.70;99.90;;;;;;6665425;88;20203;-76
2023/05/07 07:29:03;;;;;;;1999.90;999.90;;;16.90;99.90;;;;;;6666363;88;20609;-76
2023/05/07 07:39:04;;;;;;;1999.90;999.90;;;17.10;99.90;;;;;;6670821;88;20211;-76
2023/05/07 07:49:04;;;;;;;1999.90;999.90;;;17.20;99.90;;;;;;6667760;88;20218;-76
2023/05/07 07:59:05;;;;;;;1999.90;999.90;;;17.40;99.90;;;;;;6666099;88;20244;-76
2023/05/07 08:09:06;;;;;;;1999.90;999.90;;;17.90;99.90;;;;;;6669788;88;20179;-76
2023/05/07 08:19:06;;;;;;;1999.90;999.90;;;18.20;99.90;;;;;;6670387;88;20574;-77
2023/05/07 08:29:07;;;;;;;1999.90;999.90;;;18.70;99.90;;;;;;6674870;88;20322;-76
2023/05/07 08:39:08;;;;;;;1999.90;999.90;;;18.90;99.90;;;;;;6665747;88;20521;-76
2023/05/07 08:49:08;;;;;;;1999.90;999.90;;;19.60;99.90;;;;;;6667793;88;20687;-75
2023/05/07 08:59:09;;;;;;;1999.90;999.90;;;19.80;99.90;;;;;;6663187;88;20339;-75
2023/05/07 09:09:13;;;;;;;1999.90;999.90;;;20.10;99.90;;;;;;6677396;88;20196;-76
2023/05/07 09:19:14;;;;;;;1999.90;999.90;;;21.00;99.90;;;;;;6666618;88;20533;-76
2023/05/07 09:29:16;;;;;;;1999.90;999.90;;;21.80;99.90;;;;;;6670446;88;20343;-76
2023/05/07 09:39:17;;;;;;;1999.90;999.90;;;22.30;99.90;;;;;;6671303;88;20192;-75
2023/05/07 09:49:23;;;;;;;1999.90;999.90;;;22.40;99.90;;;;;;6671570;88;20726;-76
2023/05/07 09:59:25;;;;;;;1999.90;999.90;;;23.00;99.90;;;;;;6677684;77;20338;-76
2023/05/07 10:09:26;;;;;;;1999.90;999.90;;;23.60;99.90;;;;;;6672934;88;20205;-76
2023/05/07 10:19:28;;;;;;;1999.90;999.90;;;24.30;99.90;;;;;;6676163;89;20191;-79
2023/05/07 10:29:52;;;;;;;1999.90;999.90;;;25.90;99.90;;;;;;6680471;88;20271;-77
2023/05/07 10:39:53;;;;;;;1999.90;999.90;;;25.70;99.90;;;;;;6665752;88;20243;-77
2023/05/07 10:50:05;;;;;;;1999.90;999.90;;;26.20;99.90;;;;;;6664063;89;20192;-78
2023/05/07 11:00:26;;;;;;;1999.90;999.90;;;26.80;99.50;;;;;;6664084;88;20207;-77
2023/05/07 11:10:50;;;;;;;1999.90;999.90;;;27.10;99.00;;;;;;6663194;88;20239;-76
2023/05/07 11:20:58;;;;;;;1999.90;999.90;;;27.60;98.70;;;;;;6661328;89;20201;-78
2023/05/07 11:30:59;;;;;;;1999.90;999.90;;;27.10;98.90;;;;;;6672085;89;20215;-77
2023/05/07 11:41:04;;;;;;;1999.90;999.90;;;27.80;97.90;;;;;;6667044;89;20687;-78
2023/05/07 11:51:08;;;;;;;1999.90;999.90;;;27.90;97.00;;;;;;6664043;89;20650;-76
2023/05/07 12:01:10;;;;;;;1999.90;999.90;;;27.50;96.80;;;;;;6662838;88;20192;-77
2023/05/07 12:11:17;;;;;;;1999.90;999.90;;;26.90;96.60;;;;;;6664095;89;20211;-78
2023/05/07 12:21:18;;;;;;;1999.90;999.90;;;26.00;96.70;;;;;;6664856;89;20295;-78
2023/05/07 12:31:19;;;;;;;1999.90;999.90;;;25.30;97.40;;;;;;6662563;89;20606;-77
2023/05/07 12:41:25;;;;;;;1999.90;999.90;;;24.70;98.00;;;;;;6662507;89;20209;-77
2023/05/07 12:51:27;;;;;;;1999.90;999.90;;;24.30;97.90;;;;;;6665358;88;21013;-77
2023/05/07 13:01:34;;;;;;;1999.90;999.90;;;24.10;98.00;;;;;;6670244;88;20205;-77
2023/05/07 13:11:35;;;;;;;1999.90;999.90;;;24.00;99.40;;;;;;6665911;88;20191;-77
2023/05/07 13:21:35;;;;;;;1999.90;999.90;;;23.60;99.90;;;;;;6668342;89;20694;-78
2023/05/07 13:31:36;;;;;;;1999.90;999.90;;;23.30;99.90;;;;;;6668365;89;20188;-77
2023/05/07 13:41:36;;;;;;;1999.90;999.90;;;23.40;99.90;;;;;;6667869;88;20195;-78
2023/05/07 13:51:37;;;;;;;1999.90;999.90;;;23.40;99.90;;;;;;6673575;89;20240;-78
2023/05/07 14:01:38;;;;;;;1999.90;999.90;;;23.10;99.90;;;;;;6672694;88;20250;-77
2023/05/07 14:11:39;;;;;;;1999.90;999.90;;;22.90;99.90;;;;;;6670984;89;20682;-77
2023/05/07 14:21:40;;;;;;;1999.90;999.90;;;23.00;99.90;;;;;;6673205;89;20702;-77
2023/05/07 14:31:40;;;;;;;1999.90;999.90;;;23.00;99.90;;;;;;6687981;88;20203;-77
2023/05/07 14:41:41;;;;;;;1999.90;999.90;;;22.60;99.90;;;;;;6683886;88;20602;-77
2023/05/07 14:51:41;;;;;;;1999.90;999.90;;;22.20;99.90;;;;;;6679153;88;20355;-77
2023/05/07 15:01:45;;;;;;;1999.90;999.90;;;21.60;99.90;;;;;;6675074;89;20218;-80
2023/05/07 15:11:45;;;;;;;1999.90;999.90;;;20.80;99.90;;;;;;6673282;88;20204;-77
2023/05/07 15:21:46;;;;;;;1999.90;999.90;;;19.30;99.90;;;;;;6665180;89;20195;-77
2023/05/07 15:31:47;;;;;;;1999.90;999.90;;;18.40;99.90;;;;;;6669768;89;20200;-78
2023/05/07 15:41:47;;;;;;;1999.90;999.90;;;18.00;99.90;;;;;;6670366;89;20773;-79
2023/05/07 15:51:48;;;;;;;1999.90;999.90;;;17.70;99.90;;;;;;6675644;89;20291;-78
2023/05/07 16:01:48;;;;;;;1999.90;999.90;;;17.60;99.90;;;;;;6687703;78;20353;-78
2023/05/07 16:11:49;;;;;;;1999.90;999.90;;;17.80;99.90;;;;;;6687587;88;20175;-79
2023/05/07 16:21:49;;;;;;;1999.90;999.90;;;17.40;99.90;;;;;;6686593;88;20261;-79
2023/05/07 16:31:52;;;;;;;1999.90;999.90;;;17.20;99.90;;;;;;6684325;88;20709;-79
2023/05/07 16:41:52;;;;;;;1999.90;999.90;;;17.00;99.90;;;;;;6686444;88;20666;-80
2023/05/07 16:51:53;;;;;;;1999.90;999.90;;;17.00;99.90;;;;;;6679315;89;20609;-78
2023/05/07 17:01:53;;;;;;;1999.90;999.90;;;17.00;99.90;;;;;;6675771;89;20223;-81
2023/05/07 17:11:54;;;;;;;1999.90;999.90;;;16.90;99.90;;;;;;6673759;89;20211;-80
2023/05/07 17:21:55;;;;;;;1999.90;999.90;;;16.90;99.90;;;;;;6672673;89;20195;-79
2023/05/07 17:31:55;;;;;;;1999.90;999.90;;;16.90;99.90;;;;;;6669799;89;21169;-79
2023/05/07 17:41:56;;;;;;;1999.90;999.90;;;16.80;99.90;;;;;;6669831;88;20247;-78
2023/05/07 17:51:56;;;;;;;1999.90;999.90;;;16.70;99.90;;;;;;6672872;88;20207;-77
2023/05/07 18:01:57;;;;;;;1999.90;999.90;;;16.70;99.90;;;;;;6667706;88;20228;-78
2023/05/07 18:11:57;;;;;;;1999.90;999.90;;;16.50;99.90;;;;;;6666194;88;20225;-79
2023/05/07 18:21:58;;;;;;;1999.90;999.90;;;16.40;99.90;;;;;;6672714;89;20232;-80
2023/05/07 18:31:58;;;;;;;1999.90;999.90;;;16.30;99.90;;;;;;6689940;88;20196;-82
2023/05/07 18:41:59;;;;;;;1999.90;999.90;;;16.40;99.90;;;;;;6700003;88;20182;-81
2023/05/07 18:52:00;;;;;;;1999.90;999.90;;;16.20;99.90;;;;;;6702728;88;20190;-83
2023/05/07 19:02:01;;;;;;;1999.90;999.90;;;16.10;99.90;;;;;;6690115;88;20222;-81
2023/05/07 19:12:01;;;;;;;1999.90;999.90;;;15.90;99.90;;;;;;6676544;89;20224;-81
2023/05/07 19:22:02;;;;;;;1999.90;999.90;;;15.80;99.90;;;;;;6685325;88;20673;-81
2023/05/07 19:32:02;;;;;;;1999.90;999.90;;;15.90;99.90;;;;;;6697585;88;20282;-81
2023/05/07 19:42:03;;;;;;;1999.90;999.90;;;15.80;99.90;;;;;;6680688;89;20688;-80
2023/05/07 19:52:04;;;;;;;1999.90;999.90;;;15.80;99.90;;;;;;6691604;88;20227;-80
2023/05/07 20:02:05;;;;;;;1999.90;999.90;;;15.70;99.90;;;;;;6679492;88;20227;-80
2023/05/07 20:12:06;;;;;;;1999.90;999.90;;;15.60;99.90;;;;;;6670294;89;20251;-81
2023/05/07 20:22:06;;;;;;;1999.90;999.90;;;15.50;99.90;;;;;;6674644;89;20707;-80
2023/05/07 20:32:07;;;;;;;1999.90;999.90;;;15.60;99.90;;;;;;6674821;89;20191;-81
2023/05/07 20:42:08;;;;;;;1999.90;999.90;;;15.40;99.90;;;;;;6680682;89;20187;-81
2023/05/07 20:52:09;;;;;;;1999.90;999.90;;;15.30;99.90;;;;;;6690092;88;20302;-82
2023/05/07 21:02:10;;;;;;;1999.90;999.90;;;15.20;99.90;;;;;;6682867;89;20242;-77
2023/05/07 21:12:10;;;;;;;1999.90;999.90;;;15.30;99.90;;;;;;6671150;89;20200;-79
2023/05/07 21:22:11;;;;;;;1999.90;999.90;;;15.30;99.90;;;;;;6675426;89;20187;-79
2023/05/07 21:32:11;;;;;;;1999.90;999.90;;;15.20;99.90;;;;;;6681909;89;20199;-79
2023/05/07 21:42:12;;;;;;;1999.90;999.90;;;15.10;99.90;;;;;;6675766;89;20202;-79
2023/05/07 21:52:14;;;;;;;1999.90;999.90;;;15.10;99.90;;;;;;6675350;89;20195;-79
2023/05/07 22:02:14;;;;;;;1999.90;999.90;;;15.00;99.90;;;;;;6677468;78;20276;-77
2023/05/07 22:12:15;;;;;;;1999.90;999.90;;;15.00;99.90;;;;;;6666110;89;20204;-77
2023/05/07 22:22:17;;;;;;;1999.90;999.90;;;15.00;99.90;;;;;;6666205;89;20213;-76
2023/05/07 22:32:18;;;;;;;1999.90;999.90;;;15.00;99.90;;;;;;6668475;88;20257;-75
2023/05/07 22:42:18;;;;;;;1999.90;999.90;;;15.00;99.90;;;;;;6671572;88;20214;-77
2023/05/07 22:52:19;;;;;;;1999.90;999.90;;;14.90;99.90;;;;;;6680111;89;20693;-76
2023/05/07 23:02:20;;;;;;;1999.90;999.90;;;14.90;99.90;;;;;;6665922;89;20371;-75
2023/05/07 23:12:20;;;;;;;1999.90;999.90;;;14.90;99.90;;;;;;6665522;89;20204;-77
2023/05/07 23:22:21;;;;;;;1999.90;999.90;;;14.90;99.90;;;;;;6662962;89;20627;-77
2023/05/07 23:32:22;;;;;;;1999.90;999.90;;;15.00;99.90;;;;;;6663963;89;20183;-77
2023/05/07 23:42:22;;;;;;;1999.90;999.90;;;14.90;99.90;;;;;;6665129;89;20519;-76
2023/05/07 23:52:23;;;;;;;1999.90;999.90;;;14.90;99.90;;;;;;6664892;89;20205;-76
